Bois Blanc Island, Michigan
Current Conditions -  °F | °C
As of 3:17 PM on Friday 19 Dec 2014 (Local Time) from KSLH Reporting Station
Clear Clear  
Wind Chill: 24°   Ceiling: Unl
Heat Index: 24°   Visibility: 10mi
Dew Point: 17°   Wind: 0mph
Humidity: 75%   Direction: NA
Pressure: 30.26"   Gusts: NA
Location:  45.7694°N, 84.4636°W
Report Text: KSLH 192017Z AUTO 00000KT 10SM CLR M04/M08 A3026 RMK AO2 T10441082
Loading
Personal Weather Stations






























Interactive Weather Map New forecast layout! Learn more

10-Day Weather Forecast

Advertisements
Track Severe Weather on mobile